sensor_id;sensor_type;location;lat;lon;timestamp;P1;durP1;ratioP1;P2;durP2;ratioP2
5688;SDS011;2869;50.432;8.680;2022-11-18T00:01:35;31.37;;;17.13;;
5688;SDS011;2869;50.432;8.680;2022-11-18T00:04:02;28.43;;;18.30;;
5688;SDS011;2869;50.432;8.680;2022-11-18T00:06:28;42.27;;;20.50;;
5688;SDS011;2869;50.432;8.680;2022-11-18T00:08:56;30.90;;;18.73;;
5688;SDS011;2869;50.432;8.680;2022-11-18T00:11:26;29.37;;;19.40;;
5688;SDS011;2869;50.432;8.680;2022-11-18T00:14:11;33.27;;;19.17;;
5688;SDS011;2869;50.432;8.680;2022-11-18T00:16:47;29.93;;;19.10;;
5688;SDS011;2869;50.432;8.680;2022-11-18T00:19:15;31.90;;;19.80;;
5688;SDS011;2869;50.432;8.680;2022-11-18T00:21:42;34.30;;;19.50;;
5688;SDS011;2869;50.432;8.680;2022-11-18T00:24:09;34.50;;;20.23;;
5688;SDS011;2869;50.432;8.680;2022-11-18T00:26:37;32.30;;;19.67;;
5688;SDS011;2869;50.432;8.680;2022-11-18T00:29:04;30.67;;;18.73;;
5688;SDS011;2869;50.432;8.680;2022-11-18T00:31:31;38.77;;;20.83;;
5688;SDS011;2869;50.432;8.680;2022-11-18T00:33:57;34.83;;;20.70;;
5688;SDS011;2869;50.432;8.680;2022-11-18T00:36:24;34.77;;;20.00;;
5688;SDS011;2869;50.432;8.680;2022-11-18T00:38:51;40.97;;;21.30;;
5688;SDS011;2869;50.432;8.680;2022-11-18T00:41:18;41.43;;;22.27;;
5688;SDS011;2869;50.432;8.680;2022-11-18T00:43:46;37.10;;;20.20;;
5688;SDS011;2869;50.432;8.680;2022-11-18T00:46:12;46.47;;;21.70;;
5688;SDS011;2869;50.432;8.680;2022-11-18T00:48:39;36.53;;;19.83;;
5688;SDS011;2869;50.432;8.680;2022-11-18T00:51:09;37.47;;;21.93;;
5688;SDS011;2869;50.432;8.680;2022-11-18T00:53:38;36.93;;;20.90;;
5688;SDS011;2869;50.432;8.680;2022-11-18T00:56:05;36.77;;;21.03;;
5688;SDS011;2869;50.432;8.680;2022-11-18T00:58:32;41.57;;;21.30;;
5688;SDS011;2869;50.432;8.680;2022-11-18T01:01:00;34.23;;;20.37;;
5688;SDS011;2869;50.432;8.680;2022-11-18T01:03:28;35.13;;;21.50;;
5688;SDS011;2869;50.432;8.680;2022-11-18T01:05:56;44.07;;;21.40;;
5688;SDS011;2869;50.432;8.680;2022-11-18T01:08:22;43.50;;;19.67;;
5688;SDS011;2869;50.432;8.680;2022-11-18T01:10:50;33.53;;;19.87;;
5688;SDS011;2869;50.432;8.680;2022-11-18T01:13:18;33.77;;;20.70;;
5688;SDS011;2869;50.432;8.680;2022-11-18T01:15:46;40.63;;;20.60;;
5688;SDS011;2869;50.432;8.680;2022-11-18T01:18:15;39.20;;;21.90;;
5688;SDS011;2869;50.432;8.680;2022-11-18T01:20:42;40.10;;;19.77;;
5688;SDS011;2869;50.432;8.680;2022-11-18T01:23:09;45.53;;;20.27;;
5688;SDS011;2869;50.432;8.680;2022-11-18T01:25:36;35.13;;;19.10;;
5688;SDS011;2869;50.432;8.680;2022-11-18T01:28:04;40.43;;;21.00;;
5688;SDS011;2869;50.432;8.680;2022-11-18T01:30:32;39.40;;;20.90;;
5688;SDS011;2869;50.432;8.680;2022-11-18T01:32:59;36.27;;;20.67;;
5688;SDS011;2869;50.432;8.680;2022-11-18T01:35:28;41.53;;;20.77;;
5688;SDS011;2869;50.432;8.680;2022-11-18T01:37:54;41.37;;;21.03;;
5688;SDS011;2869;50.432;8.680;2022-11-18T01:40:21;41.97;;;20.20;;
5688;SDS011;2869;50.432;8.680;2022-11-18T01:42:48;43.73;;;21.60;;
5688;SDS011;2869;50.432;8.680;2022-11-18T01:45:18;38.60;;;19.43;;
5688;SDS011;2869;50.432;8.680;2022-11-18T01:47:58;41.70;;;20.60;;
5688;SDS011;2869;50.432;8.680;2022-11-18T01:50:30;43.27;;;21.90;;
5688;SDS011;2869;50.432;8.680;2022-11-18T01:52:59;50.67;;;21.33;;
5688;SDS011;2869;50.432;8.680;2022-11-18T01:55:31;42.43;;;21.70;;
5688;SDS011;2869;50.432;8.680;2022-11-18T01:58:02;39.90;;;21.20;;
5688;SDS011;2869;50.432;8.680;2022-11-18T02:00:34;44.07;;;22.60;;
5688;SDS011;2869;50.432;8.680;2022-11-18T02:03:01;49.60;;;21.73;;
5688;SDS011;2869;50.432;8.680;2022-11-18T02:05:30;53.50;;;21.60;;
5688;SDS011;2869;50.432;8.680;2022-11-18T02:07:58;39.77;;;21.70;;
5688;SDS011;2869;50.432;8.680;2022-11-18T02:10:26;60.37;;;21.50;;
5688;SDS011;2869;50.432;8.680;2022-11-18T02:12:53;50.17;;;20.80;;
5688;SDS011;2869;50.432;8.680;2022-11-18T02:15:24;63.73;;;21.83;;
5688;SDS011;2869;50.432;8.680;2022-11-18T02:18:02;67.83;;;23.27;;
5688;SDS011;2869;50.432;8.680;2022-11-18T02:20:35;43.47;;;21.40;;
5688;SDS011;2869;50.432;8.680;2022-11-18T02:26:14;105.50;;;25.07;;
5688;SDS011;2869;50.432;8.680;2022-11-18T02:29:21;73.10;;;22.40;;
5688;SDS011;2869;50.432;8.680;2022-11-18T02:31:51;113.60;;;23.20;;
5688;SDS011;2869;50.432;8.680;2022-11-18T02:34:26;132.13;;;23.30;;
5688;SDS011;2869;50.432;8.680;2022-11-18T02:37:02;133.77;;;22.50;;
5688;SDS011;2869;50.432;8.680;2022-11-18T02:39:33;91.07;;;21.20;;
5688;SDS011;2869;50.432;8.680;2022-11-18T02:42:05;247.23;;;23.83;;
5688;SDS011;2869;50.432;8.680;2022-11-18T02:44:37;219.97;;;23.50;;
5688;SDS011;2869;50.432;8.680;2022-11-18T02:47:08;170.03;;;22.03;;
5688;SDS011;2869;50.432;8.680;2022-11-18T02:49:39;186.77;;;22.37;;
5688;SDS011;2869;50.432;8.680;2022-11-18T02:52:09;189.53;;;20.90;;
5688;SDS011;2869;50.432;8.680;2022-11-18T02:54:39;116.47;;;21.40;;
5688;SDS011;2869;50.432;8.680;2022-11-18T02:57:08;306.53;;;24.70;;
5688;SDS011;2869;50.432;8.680;2022-11-18T02:59:37;305.87;;;24.10;;
5688;SDS011;2869;50.432;8.680;2022-11-18T03:02:04;318.70;;;21.73;;
5688;SDS011;2869;50.432;8.680;2022-11-18T03:04:31;169.80;;;19.50;;
5688;SDS011;2869;50.432;8.680;2022-11-18T03:07:01;224.10;;;20.37;;
5688;SDS011;2869;50.432;8.680;2022-11-18T03:09:35;195.73;;;18.90;;
5688;SDS011;2869;50.432;8.680;2022-11-18T03:12:07;194.73;;;18.67;;
5688;SDS011;2869;50.432;8.680;2022-11-18T03:14:44;173.47;;;17.47;;
5688;SDS011;2869;50.432;8.680;2022-11-18T03:17:17;196.53;;;17.73;;
5688;SDS011;2869;50.432;8.680;2022-11-18T03:19:52;98.13;;;15.10;;
5688;SDS011;2869;50.432;8.680;2022-11-18T03:22:27;158.80;;;16.33;;
5688;SDS011;2869;50.432;8.680;2022-11-18T03:25:00;40.57;;;11.67;;
5688;SDS011;2869;50.432;8.680;2022-11-18T03:27:32;38.90;;;12.10;;
5688;SDS011;2869;50.432;8.680;2022-11-18T03:30:04;59.27;;;11.70;;
5688;SDS011;2869;50.432;8.680;2022-11-18T03:32:35;40.20;;;11.70;;
5688;SDS011;2869;50.432;8.680;2022-11-18T03:35:06;89.83;;;13.57;;
5688;SDS011;2869;50.432;8.680;2022-11-18T03:37:35;122.00;;;13.60;;
5688;SDS011;2869;50.432;8.680;2022-11-18T03:40:07;62.23;;;11.70;;
5688;SDS011;2869;50.432;8.680;2022-11-18T03:42:40;73.23;;;11.90;;
5688;SDS011;2869;50.432;8.680;2022-11-18T03:45:11;84.03;;;12.90;;
5688;SDS011;2869;50.432;8.680;2022-11-18T03:47:43;94.70;;;14.50;;
5688;SDS011;2869;50.432;8.680;2022-11-18T03:50:16;99.03;;;14.20;;
5688;SDS011;2869;50.432;8.680;2022-11-18T03:52:46;119.20;;;15.73;;
5688;SDS011;2869;50.432;8.680;2022-11-18T03:55:16;176.63;;;17.53;;
5688;SDS011;2869;50.432;8.680;2022-11-18T03:57:47;205.97;;;16.80;;
5688;SDS011;2869;50.432;8.680;2022-11-18T04:00:20;82.60;;;12.83;;
5688;SDS011;2869;50.432;8.680;2022-11-18T04:02:47;90.57;;;11.93;;
5688;SDS011;2869;50.432;8.680;2022-11-18T04:05:15;86.23;;;11.13;;
5688;SDS011;2869;50.432;8.680;2022-11-18T04:07:46;69.27;;;11.17;;
5688;SDS011;2869;50.432;8.680;2022-11-18T04:10:21;88.77;;;12.70;;
5688;SDS011;2869;50.432;8.680;2022-11-18T04:12:53;106.87;;;12.00;;
5688;SDS011;2869;50.432;8.680;2022-11-18T04:15:24;37.37;;;11.17;;
5688;SDS011;2869;50.432;8.680;2022-11-18T04:17:51;74.60;;;11.80;;
5688;SDS011;2869;50.432;8.680;2022-11-18T04:20:18;83.00;;;12.60;;
5688;SDS011;2869;50.432;8.680;2022-11-18T04:22:46;49.83;;;10.53;;
5688;SDS011;2869;50.432;8.680;2022-11-18T04:25:13;57.90;;;12.07;;
5688;SDS011;2869;50.432;8.680;2022-11-18T04:27:40;37.73;;;12.03;;
5688;SDS011;2869;50.432;8.680;2022-11-18T04:30:07;38.77;;;11.13;;
5688;SDS011;2869;50.432;8.680;2022-11-18T04:32:36;34.40;;;10.53;;
5688;SDS011;2869;50.432;8.680;2022-11-18T04:35:03;56.87;;;12.93;;
5688;SDS011;2869;50.432;8.680;2022-11-18T04:37:30;45.87;;;12.67;;
5688;SDS011;2869;50.432;8.680;2022-11-18T04:39:56;30.93;;;12.50;;
5688;SDS011;2869;50.432;8.680;2022-11-18T04:42:23;50.47;;;12.93;;
5688;SDS011;2869;50.432;8.680;2022-11-18T04:44:50;46.77;;;12.33;;
5688;SDS011;2869;50.432;8.680;2022-11-18T04:47:16;54.87;;;12.83;;
5688;SDS011;2869;50.432;8.680;2022-11-18T04:49:44;34.20;;;11.47;;
5688;SDS011;2869;50.432;8.680;2022-11-18T04:52:11;61.80;;;12.70;;
5688;SDS011;2869;50.432;8.680;2022-11-18T04:54:38;54.10;;;12.60;;
5688;SDS011;2869;50.432;8.680;2022-11-18T04:57:05;54.70;;;13.73;;
5688;SDS011;2869;50.432;8.680;2022-11-18T04:59:31;65.53;;;14.17;;
5688;SDS011;2869;50.432;8.680;2022-11-18T05:01:58;58.50;;;13.17;;
5688;SDS011;2869;50.432;8.680;2022-11-18T05:04:26;46.00;;;11.13;;
5688;SDS011;2869;50.432;8.680;2022-11-18T05:06:56;39.13;;;11.73;;
5688;SDS011;2869;50.432;8.680;2022-11-18T05:09:24;41.70;;;12.23;;
5688;SDS011;2869;50.432;8.680;2022-11-18T05:11:51;42.83;;;10.20;;
5688;SDS011;2869;50.432;8.680;2022-11-18T05:14:36;31.60;;;12.10;;
5688;SDS011;2869;50.432;8.680;2022-11-18T05:17:04;32.80;;;11.23;;
5688;SDS011;2869;50.432;8.680;2022-11-18T05:19:32;24.20;;;10.37;;
5688;SDS011;2869;50.432;8.680;2022-11-18T05:22:00;30.67;;;10.77;;
5688;SDS011;2869;50.432;8.680;2022-11-18T05:24:27;26.87;;;10.80;;
5688;SDS011;2869;50.432;8.680;2022-11-18T05:26:54;23.93;;;10.70;;
5688;SDS011;2869;50.432;8.680;2022-11-18T05:29:20;23.13;;;9.67;;
5688;SDS011;2869;50.432;8.680;2022-11-18T05:31:47;17.13;;;8.83;;
5688;SDS011;2869;50.432;8.680;2022-11-18T05:34:15;15.33;;;8.03;;
5688;SDS011;2869;50.432;8.680;2022-11-18T05:36:42;15.03;;;7.50;;
5688;SDS011;2869;50.432;8.680;2022-11-18T05:39:10;17.67;;;7.50;;
5688;SDS011;2869;50.432;8.680;2022-11-18T05:41:37;11.97;;;7.20;;
5688;SDS011;2869;50.432;8.680;2022-11-18T05:44:21;15.27;;;7.97;;
5688;SDS011;2869;50.432;8.680;2022-11-18T05:46:48;13.60;;;8.30;;
5688;SDS011;2869;50.432;8.680;2022-11-18T05:49:14;15.17;;;8.17;;
5688;SDS011;2869;50.432;8.680;2022-11-18T05:51:41;22.00;;;8.97;;
5688;SDS011;2869;50.432;8.680;2022-11-18T05:54:08;21.93;;;9.27;;
5688;SDS011;2869;50.432;8.680;2022-11-18T05:56:39;19.20;;;9.03;;
5688;SDS011;2869;50.432;8.680;2022-11-18T05:59:08;17.40;;;8.67;;
5688;SDS011;2869;50.432;8.680;2022-11-18T06:01:36;20.50;;;8.63;;
5688;SDS011;2869;50.432;8.680;2022-11-18T06:04:07;14.20;;;7.63;;
5688;SDS011;2869;50.432;8.680;2022-11-18T06:06:38;14.90;;;8.47;;
5688;SDS011;2869;50.432;8.680;2022-11-18T06:09:05;25.20;;;9.60;;
5688;SDS011;2869;50.432;8.680;2022-11-18T06:11:36;29.10;;;9.50;;
5688;SDS011;2869;50.432;8.680;2022-11-18T06:14:07;15.63;;;7.60;;
5688;SDS011;2869;50.432;8.680;2022-11-18T06:16:37;11.10;;;6.97;;
5688;SDS011;2869;50.432;8.680;2022-11-18T06:19:08;17.60;;;8.10;;
5688;SDS011;2869;50.432;8.680;2022-11-18T06:21:35;16.30;;;8.37;;
5688;SDS011;2869;50.432;8.680;2022-11-18T06:24:02;14.57;;;8.33;;
5688;SDS011;2869;50.432;8.680;2022-11-18T06:26:31;15.83;;;8.90;;
5688;SDS011;2869;50.432;8.680;2022-11-18T06:28:59;14.70;;;8.23;;
5688;SDS011;2869;50.432;8.680;2022-11-18T06:31:25;17.43;;;7.80;;
5688;SDS011;2869;50.432;8.680;2022-11-18T06:33:52;15.27;;;8.60;;
5688;SDS011;2869;50.432;8.680;2022-11-18T06:36:19;16.73;;;7.60;;
5688;SDS011;2869;50.432;8.680;2022-11-18T06:38:46;12.77;;;7.40;;
5688;SDS011;2869;50.432;8.680;2022-11-18T06:41:13;14.43;;;9.10;;
5688;SDS011;2869;50.432;8.680;2022-11-18T06:43:39;12.60;;;7.90;;
5688;SDS011;2869;50.432;8.680;2022-11-18T06:46:08;16.53;;;8.63;;
5688;SDS011;2869;50.432;8.680;2022-11-18T06:48:53;17.73;;;7.30;;
5688;SDS011;2869;50.432;8.680;2022-11-18T06:51:21;11.70;;;7.77;;
5688;SDS011;2869;50.432;8.680;2022-11-18T06:53:47;13.90;;;7.63;;
5688;SDS011;2869;50.432;8.680;2022-11-18T06:56:15;13.33;;;7.70;;
5688;SDS011;2869;50.432;8.680;2022-11-18T06:58:43;10.17;;;7.10;;
5688;SDS011;2869;50.432;8.680;2022-11-18T07:01:12;12.90;;;7.73;;
5688;SDS011;2869;50.432;8.680;2022-11-18T07:03:40;11.80;;;7.70;;
5688;SDS011;2869;50.432;8.680;2022-11-18T07:06:08;13.87;;;7.60;;
5688;SDS011;2869;50.432;8.680;2022-11-18T07:08:36;11.30;;;7.90;;
5688;SDS011;2869;50.432;8.680;2022-11-18T07:11:03;12.10;;;7.97;;
5688;SDS011;2869;50.432;8.680;2022-11-18T07:13:31;14.77;;;7.97;;
5688;SDS011;2869;50.432;8.680;2022-11-18T07:16:02;13.33;;;8.00;;
5688;SDS011;2869;50.432;8.680;2022-11-18T07:18:31;15.70;;;7.80;;
5688;SDS011;2869;50.432;8.680;2022-11-18T07:21:02;12.00;;;7.80;;
5688;SDS011;2869;50.432;8.680;2022-11-18T07:23:30;10.47;;;6.83;;
5688;SDS011;2869;50.432;8.680;2022-11-18T07:25:57;16.03;;;8.07;;
5688;SDS011;2869;50.432;8.680;2022-11-18T07:28:24;16.03;;;7.10;;
5688;SDS011;2869;50.432;8.680;2022-11-18T07:30:52;10.00;;;7.10;;
5688;SDS011;2869;50.432;8.680;2022-11-18T07:33:19;9.37;;;6.97;;
5688;SDS011;2869;50.432;8.680;2022-11-18T07:35:47;12.27;;;7.10;;
5688;SDS011;2869;50.432;8.680;2022-11-18T07:38:14;8.63;;;5.90;;
5688;SDS011;2869;50.432;8.680;2022-11-18T07:40:41;8.03;;;5.80;;
5688;SDS011;2869;50.432;8.680;2022-11-18T07:43:08;9.63;;;5.77;;
5688;SDS011;2869;50.432;8.680;2022-11-18T07:45:35;14.37;;;5.83;;
5688;SDS011;2869;50.432;8.680;2022-11-18T07:48:01;10.60;;;6.87;;
5688;SDS011;2869;50.432;8.680;2022-11-18T07:50:29;12.50;;;7.33;;
5688;SDS011;2869;50.432;8.680;2022-11-18T07:52:57;15.30;;;7.30;;
5688;SDS011;2869;50.432;8.680;2022-11-18T07:55:24;10.82;;;6.90;;
5688;SDS011;2869;50.432;8.680;2022-11-18T07:57:51;9.00;;;6.30;;
5688;SDS011;2869;50.432;8.680;2022-11-18T08:00:17;9.63;;;6.87;;
5688;SDS011;2869;50.432;8.680;2022-11-18T08:02:48;14.80;;;6.60;;
5688;SDS011;2869;50.432;8.680;2022-11-18T08:05:15;9.23;;;6.67;;
5688;SDS011;2869;50.432;8.680;2022-11-18T08:07:42;14.00;;;6.07;;
5688;SDS011;2869;50.432;8.680;2022-11-18T08:10:10;8.87;;;6.50;;
5688;SDS011;2869;50.432;8.680;2022-11-18T08:12:37;9.43;;;7.30;;
5688;SDS011;2869;50.432;8.680;2022-11-18T08:15:04;13.47;;;6.77;;
5688;SDS011;2869;50.432;8.680;2022-11-18T08:17:31;11.63;;;7.63;;
5688;SDS011;2869;50.432;8.680;2022-11-18T08:19:58;11.80;;;7.43;;
5688;SDS011;2869;50.432;8.680;2022-11-18T08:22:25;10.63;;;7.80;;
5688;SDS011;2869;50.432;8.680;2022-11-18T08:24:51;12.13;;;7.70;;
5688;SDS011;2869;50.432;8.680;2022-11-18T08:27:19;13.73;;;8.67;;
5688;SDS011;2869;50.432;8.680;2022-11-18T08:29:46;11.37;;;7.43;;
5688;SDS011;2869;50.432;8.680;2022-11-18T08:32:13;9.43;;;7.13;;
5688;SDS011;2869;50.432;8.680;2022-11-18T08:34:39;13.57;;;8.97;;
5688;SDS011;2869;50.432;8.680;2022-11-18T08:37:06;12.87;;;7.67;;
5688;SDS011;2869;50.432;8.680;2022-11-18T08:39:33;14.40;;;8.40;;
5688;SDS011;2869;50.432;8.680;2022-11-18T08:41:59;11.07;;;7.67;;
5688;SDS011;2869;50.432;8.680;2022-11-18T08:44:27;9.63;;;7.00;;
5688;SDS011;2869;50.432;8.680;2022-11-18T08:46:57;13.93;;;7.40;;
5688;SDS011;2869;50.432;8.680;2022-11-18T08:49:24;8.90;;;7.10;;
5688;SDS011;2869;50.432;8.680;2022-11-18T08:51:50;12.67;;;7.73;;
5688;SDS011;2869;50.432;8.680;2022-11-18T08:54:17;9.83;;;7.17;;
5688;SDS011;2869;50.432;8.680;2022-11-18T08:56:44;11.57;;;7.67;;
5688;SDS011;2869;50.432;8.680;2022-11-18T08:59:10;8.73;;;7.53;;
5688;SDS011;2869;50.432;8.680;2022-11-18T09:01:38;8.40;;;6.40;;
5688;SDS011;2869;50.432;8.680;2022-11-18T09:04:07;8.63;;;6.40;;
5688;SDS011;2869;50.432;8.680;2022-11-18T09:06:34;7.57;;;6.00;;
5688;SDS011;2869;50.432;8.680;2022-11-18T09:09:02;9.70;;;5.73;;
5688;SDS011;2869;50.432;8.680;2022-11-18T09:11:29;8.83;;;6.23;;
5688;SDS011;2869;50.432;8.680;2022-11-18T09:13:56;7.07;;;6.20;;
5688;SDS011;2869;50.432;8.680;2022-11-18T09:16:24;8.00;;;5.97;;
5688;SDS011;2869;50.432;8.680;2022-11-18T09:18:53;13.53;;;7.40;;
5688;SDS011;2869;50.432;8.680;2022-11-18T09:21:20;11.40;;;6.90;;
5688;SDS011;2869;50.432;8.680;2022-11-18T09:23:47;11.97;;;6.50;;
5688;SDS011;2869;50.432;8.680;2022-11-18T09:26:16;15.30;;;8.20;;
5688;SDS011;2869;50.432;8.680;2022-11-18T09:28:45;15.63;;;7.57;;
5688;SDS011;2869;50.432;8.680;2022-11-18T09:31:12;14.73;;;7.73;;
5688;SDS011;2869;50.432;8.680;2022-11-18T09:33:41;14.60;;;8.57;;
5688;SDS011;2869;50.432;8.680;2022-11-18T09:36:11;10.10;;;7.60;;
5688;SDS011;2869;50.432;8.680;2022-11-18T09:38:39;13.33;;;7.50;;
5688;SDS011;2869;50.432;8.680;2022-11-18T09:41:09;12.50;;;8.20;;
5688;SDS011;2869;50.432;8.680;2022-11-18T09:43:48;14.10;;;7.80;;
5688;SDS011;2869;50.432;8.680;2022-11-18T09:46:27;11.93;;;8.63;;
5688;SDS011;2869;50.432;8.680;2022-11-18T09:48:59;15.37;;;7.80;;
5688;SDS011;2869;50.432;8.680;2022-11-18T09:51:40;12.43;;;7.50;;
5688;SDS011;2869;50.432;8.680;2022-11-18T09:54:09;10.87;;;7.97;;
5688;SDS011;2869;50.432;8.680;2022-11-18T09:56:40;11.40;;;8.33;;
5688;SDS011;2869;50.432;8.680;2022-11-18T09:59:09;14.70;;;8.07;;
5688;SDS011;2869;50.432;8.680;2022-11-18T10:01:38;9.30;;;7.27;;
5688;SDS011;2869;50.432;8.680;2022-11-18T10:04:10;15.30;;;7.97;;
5688;SDS011;2869;50.432;8.680;2022-11-18T10:06:39;12.60;;;7.40;;
5688;SDS011;2869;50.432;8.680;2022-11-18T10:09:17;17.40;;;7.93;;
5688;SDS011;2869;50.432;8.680;2022-11-18T10:11:56;21.43;;;7.70;;
5688;SDS011;2869;50.432;8.680;2022-11-18T10:14:46;10.27;;;7.13;;
5688;SDS011;2869;50.432;8.680;2022-11-18T10:17:27;9.90;;;6.80;;
5688;SDS011;2869;50.432;8.680;2022-11-18T10:20:12;11.70;;;6.47;;
5688;SDS011;2869;50.432;8.680;2022-11-18T10:22:47;8.80;;;6.17;;
5688;SDS011;2869;50.432;8.680;2022-11-18T10:25:17;11.47;;;6.27;;
5688;SDS011;2869;50.432;8.680;2022-11-18T10:27:45;8.03;;;5.60;;
5688;SDS011;2869;50.432;8.680;2022-11-18T10:30:13;10.47;;;6.33;;
5688;SDS011;2869;50.432;8.680;2022-11-18T10:32:55;12.33;;;6.47;;
5688;SDS011;2869;50.432;8.680;2022-11-18T10:35:25;13.03;;;6.60;;
5688;SDS011;2869;50.432;8.680;2022-11-18T10:38:02;8.00;;;5.70;;
5688;SDS011;2869;50.432;8.680;2022-11-18T10:40:30;10.60;;;6.37;;
5688;SDS011;2869;50.432;8.680;2022-11-18T10:42:58;8.53;;;6.67;;
5688;SDS011;2869;50.432;8.680;2022-11-18T10:45:26;10.57;;;7.07;;
5688;SDS011;2869;50.432;8.680;2022-11-18T10:48:01;10.50;;;6.70;;
5688;SDS011;2869;50.432;8.680;2022-11-18T10:50:33;10.40;;;6.70;;
5688;SDS011;2869;50.432;8.680;2022-11-18T10:53:03;13.47;;;7.67;;
5688;SDS011;2869;50.432;8.680;2022-11-18T10:55:31;12.23;;;6.80;;
5688;SDS011;2869;50.432;8.680;2022-11-18T10:58:02;8.50;;;6.83;;
5688;SDS011;2869;50.432;8.680;2022-11-18T11:00:39;9.90;;;6.77;;
5688;SDS011;2869;50.432;8.680;2022-11-18T11:03:14;14.37;;;8.50;;
5688;SDS011;2869;50.432;8.680;2022-11-18T11:05:48;14.43;;;8.27;;
5688;SDS011;2869;50.432;8.680;2022-11-18T11:08:46;14.67;;;9.67;;
5688;SDS011;2869;50.432;8.680;2022-11-18T11:11:17;14.50;;;8.47;;
5688;SDS011;2869;50.432;8.680;2022-11-18T11:13:50;16.17;;;8.27;;
5688;SDS011;2869;50.432;8.680;2022-11-18T11:16:18;11.97;;;7.47;;
5688;SDS011;2869;50.432;8.680;2022-11-18T11:18:47;15.80;;;8.50;;
5688;SDS011;2869;50.432;8.680;2022-11-18T11:21:19;14.40;;;9.43;;
5688;SDS011;2869;50.432;8.680;2022-11-18T11:23:50;14.87;;;8.90;;
5688;SDS011;2869;50.432;8.680;2022-11-18T11:26:18;17.83;;;10.27;;
5688;SDS011;2869;50.432;8.680;2022-11-18T11:28:52;18.90;;;11.03;;
5688;SDS011;2869;50.432;8.680;2022-11-18T11:31:26;23.80;;;11.87;;
5688;SDS011;2869;50.432;8.680;2022-11-18T11:34:01;26.73;;;14.53;;
5688;SDS011;2869;50.432;8.680;2022-11-18T11:36:39;21.70;;;13.10;;
5688;SDS011;2869;50.432;8.680;2022-11-18T11:39:20;27.10;;;16.07;;
5688;SDS011;2869;50.432;8.680;2022-11-18T11:42:18;24.33;;;15.53;;
5688;SDS011;2869;50.432;8.680;2022-11-18T11:44:57;27.70;;;18.00;;
5688;SDS011;2869;50.432;8.680;2022-11-18T11:47:41;21.10;;;14.30;;
5688;SDS011;2869;50.432;8.680;2022-11-18T11:50:22;11.23;;;8.30;;
5688;SDS011;2869;50.432;8.680;2022-11-18T11:53:00;13.57;;;6.80;;
5688;SDS011;2869;50.432;8.680;2022-11-18T11:55:44;9.90;;;5.60;;
5688;SDS011;2869;50.432;8.680;2022-11-18T11:58:25;9.57;;;4.87;;
5688;SDS011;2869;50.432;8.680;2022-11-18T12:01:04;4.13;;;3.67;;
5688;SDS011;2869;50.432;8.680;2022-11-18T12:03:43;6.23;;;3.70;;
5688;SDS011;2869;50.432;8.680;2022-11-18T12:06:12;4.57;;;3.60;;
5688;SDS011;2869;50.432;8.680;2022-11-18T12:08:44;7.33;;;3.27;;
5688;SDS011;2869;50.432;8.680;2022-11-18T12:11:28;5.97;;;3.50;;
5688;SDS011;2869;50.432;8.680;2022-11-18T12:13:58;9.20;;;3.80;;
5688;SDS011;2869;50.432;8.680;2022-11-18T12:16:30;8.03;;;3.23;;
5688;SDS011;2869;50.432;8.680;2022-11-18T12:19:02;6.00;;;3.50;;
5688;SDS011;2869;50.432;8.680;2022-11-18T12:24:34;5.17;;;3.50;;
5688;SDS011;2869;50.432;8.680;2022-11-18T12:27:05;13.23;;;4.10;;
5688;SDS011;2869;50.432;8.680;2022-11-18T12:29:43;7.43;;;3.57;;
5688;SDS011;2869;50.432;8.680;2022-11-18T12:32:26;5.13;;;3.67;;
5688;SDS011;2869;50.432;8.680;2022-11-18T12:34:56;9.33;;;3.60;;
5688;SDS011;2869;50.432;8.680;2022-11-18T12:37:39;5.63;;;3.57;;
5688;SDS011;2869;50.432;8.680;2022-11-18T12:40:30;6.53;;;3.53;;
5688;SDS011;2869;50.432;8.680;2022-11-18T12:43:00;9.90;;;3.93;;
5688;SDS011;2869;50.432;8.680;2022-11-18T12:45:47;14.10;;;3.40;;
5688;SDS011;2869;50.432;8.680;2022-11-18T12:48:35;4.10;;;2.70;;
5688;SDS011;2869;50.432;8.680;2022-11-18T12:54:26;8.50;;;2.87;;
5688;SDS011;2869;50.432;8.680;2022-11-18T12:56:56;4.13;;;3.27;;
5688;SDS011;2869;50.432;8.680;2022-11-18T12:59:27;8.83;;;3.10;;
5688;SDS011;2869;50.432;8.680;2022-11-18T13:02:02;7.00;;;3.40;;
5688;SDS011;2869;50.432;8.680;2022-11-18T13:04:30;6.13;;;3.27;;
5688;SDS011;2869;50.432;8.680;2022-11-18T13:06:57;10.30;;;4.17;;
5688;SDS011;2869;50.432;8.680;2022-11-18T13:09:25;6.73;;;2.93;;
5688;SDS011;2869;50.432;8.680;2022-11-18T13:11:55;8.60;;;3.00;;
5688;SDS011;2869;50.432;8.680;2022-11-18T13:14:27;3.40;;;3.10;;
5688;SDS011;2869;50.432;8.680;2022-11-18T13:17:23;6.70;;;3.10;;
5688;SDS011;2869;50.432;8.680;2022-11-18T13:20:19;8.40;;;3.10;;
5688;SDS011;2869;50.432;8.680;2022-11-18T13:22:48;6.07;;;3.73;;
5688;SDS011;2869;50.432;8.680;2022-11-18T13:25:33;5.30;;;3.10;;
5688;SDS011;2869;50.432;8.680;2022-11-18T13:28:01;7.37;;;3.07;;
5688;SDS011;2869;50.432;8.680;2022-11-18T13:30:41;7.10;;;3.70;;
5688;SDS011;2869;50.432;8.680;2022-11-18T13:33:13;3.83;;;2.50;;
5688;SDS011;2869;50.432;8.680;2022-11-18T13:35:40;6.60;;;2.67;;
5688;SDS011;2869;50.432;8.680;2022-11-18T13:38:15;6.83;;;2.47;;
5688;SDS011;2869;50.432;8.680;2022-11-18T13:40:46;2.97;;;2.70;;
5688;SDS011;2869;50.432;8.680;2022-11-18T13:43:28;3.80;;;3.10;;
5688;SDS011;2869;50.432;8.680;2022-11-18T13:45:57;2.60;;;2.40;;
5688;SDS011;2869;50.432;8.680;2022-11-18T13:48:25;4.40;;;2.50;;
5688;SDS011;2869;50.432;8.680;2022-11-18T13:50:52;6.47;;;2.90;;
5688;SDS011;2869;50.432;8.680;2022-11-18T13:53:24;6.70;;;2.60;;
5688;SDS011;2869;50.432;8.680;2022-11-18T13:55:54;4.10;;;2.93;;
5688;SDS011;2869;50.432;8.680;2022-11-18T13:58:30;4.70;;;3.13;;
5688;SDS011;2869;50.432;8.680;2022-11-18T14:01:00;4.20;;;3.20;;
5688;SDS011;2869;50.432;8.680;2022-11-18T14:03:30;4.20;;;2.73;;
5688;SDS011;2869;50.432;8.680;2022-11-18T14:06:00;4.60;;;2.90;;
5688;SDS011;2869;50.432;8.680;2022-11-18T14:08:28;7.80;;;2.90;;
5688;SDS011;2869;50.432;8.680;2022-11-18T14:10:56;6.50;;;3.97;;
5688;SDS011;2869;50.432;8.680;2022-11-18T14:13:24;4.10;;;3.27;;
5688;SDS011;2869;50.432;8.680;2022-11-18T14:15:55;3.47;;;2.97;;
5688;SDS011;2869;50.432;8.680;2022-11-18T14:18:28;8.07;;;3.07;;
5688;SDS011;2869;50.432;8.680;2022-11-18T14:20:57;5.70;;;3.30;;
5688;SDS011;2869;50.432;8.680;2022-11-18T14:23:26;4.00;;;3.00;;
5688;SDS011;2869;50.432;8.680;2022-11-18T14:25:54;4.37;;;3.20;;
5688;SDS011;2869;50.432;8.680;2022-11-18T14:28:22;7.57;;;3.20;;
5688;SDS011;2869;50.432;8.680;2022-11-18T14:30:59;3.90;;;3.30;;
5688;SDS011;2869;50.432;8.680;2022-11-18T14:33:29;5.47;;;3.70;;
5688;SDS011;2869;50.432;8.680;2022-11-18T14:35:57;6.57;;;3.87;;
5688;SDS011;2869;50.432;8.680;2022-11-18T14:38:28;5.57;;;3.43;;
5688;SDS011;2869;50.432;8.680;2022-11-18T14:41:02;3.63;;;3.10;;
5688;SDS011;2869;50.432;8.680;2022-11-18T14:43:30;3.90;;;3.00;;
5688;SDS011;2869;50.432;8.680;2022-11-18T14:45:57;4.97;;;3.50;;
5688;SDS011;2869;50.432;8.680;2022-11-18T14:48:26;7.33;;;4.90;;
5688;SDS011;2869;50.432;8.680;2022-11-18T14:50:55;7.70;;;5.77;;
5688;SDS011;2869;50.432;8.680;2022-11-18T14:53:22;9.57;;;6.40;;
5688;SDS011;2869;50.432;8.680;2022-11-18T14:55:50;13.13;;;8.30;;
5688;SDS011;2869;50.432;8.680;2022-11-18T14:58:18;19.73;;;9.70;;
5688;SDS011;2869;50.432;8.680;2022-11-18T15:00:46;12.20;;;7.60;;
5688;SDS011;2869;50.432;8.680;2022-11-18T15:03:14;7.70;;;4.57;;
5688;SDS011;2869;50.432;8.680;2022-11-18T15:05:41;7.30;;;4.70;;
5688;SDS011;2869;50.432;8.680;2022-11-18T15:08:09;7.13;;;5.20;;
5688;SDS011;2869;50.432;8.680;2022-11-18T15:10:36;10.87;;;4.93;;
5688;SDS011;2869;50.432;8.680;2022-11-18T15:13:02;8.00;;;4.43;;
5688;SDS011;2869;50.432;8.680;2022-11-18T15:15:29;8.70;;;4.63;;
5688;SDS011;2869;50.432;8.680;2022-11-18T15:17:56;7.13;;;4.80;;
5688;SDS011;2869;50.432;8.680;2022-11-18T15:20:23;9.77;;;5.97;;
5688;SDS011;2869;50.432;8.680;2022-11-18T15:22:49;10.10;;;5.83;;
5688;SDS011;2869;50.432;8.680;2022-11-18T15:25:17;10.70;;;5.70;;
5688;SDS011;2869;50.432;8.680;2022-11-18T15:27:44;9.40;;;6.47;;
5688;SDS011;2869;50.432;8.680;2022-11-18T15:30:11;12.07;;;7.00;;